sensor_id;sensor_type;location;lat;lon;timestamp;P1;durP1;ratioP1;P2;durP2;ratioP2
49193;SDS011;35029;50.804;12.866;2023-03-03T00:02:17;40.63;;;24.23;;
49193;SDS011;35029;50.804;12.866;2023-03-03T00:04:43;42.83;;;25.30;;
49193;SDS011;35029;50.804;12.866;2023-03-03T00:07:09;41.58;;;24.48;;
49193;SDS011;35029;50.804;12.866;2023-03-03T00:09:36;40.13;;;24.57;;
49193;SDS011;35029;50.804;12.866;2023-03-03T00:12:01;46.70;;;26.47;;
49193;SDS011;35029;50.804;12.866;2023-03-03T00:14:47;41.73;;;26.10;;
49193;SDS011;35029;50.804;12.866;2023-03-03T00:17:24;37.85;;;23.95;;
49193;SDS011;35029;50.804;12.866;2023-03-03T00:19:51;45.87;;;24.83;;
49193;SDS011;35029;50.804;12.866;2023-03-03T00:22:31;46.22;;;26.63;;
49193;SDS011;35029;50.804;12.866;2023-03-03T00:25:19;45.65;;;26.20;;
49193;SDS011;35029;50.804;12.866;2023-03-03T00:27:53;40.95;;;24.77;;
49193;SDS011;35029;50.804;12.866;2023-03-03T00:30:22;45.25;;;25.98;;
49193;SDS011;35029;50.804;12.866;2023-03-03T00:32:50;41.28;;;25.13;;
49193;SDS011;35029;50.804;12.866;2023-03-03T00:37:56;39.47;;;25.73;;
49193;SDS011;35029;50.804;12.866;2023-03-03T00:40:24;49.30;;;27.67;;
49193;SDS011;35029;50.804;12.866;2023-03-03T00:42:57;54.30;;;30.17;;
49193;SDS011;35029;50.804;12.866;2023-03-03T00:48:00;56.25;;;31.20;;
49193;SDS011;35029;50.804;12.866;2023-03-03T00:50:53;53.00;;;29.13;;
49193;SDS011;35029;50.804;12.866;2023-03-03T00:53:22;61.28;;;32.78;;
49193;SDS011;35029;50.804;12.866;2023-03-03T00:55:49;60.88;;;32.20;;
49193;SDS011;35029;50.804;12.866;2023-03-03T00:58:16;61.58;;;33.22;;
49193;SDS011;35029;50.804;12.866;2023-03-03T01:00:49;71.75;;;36.58;;
49193;SDS011;35029;50.804;12.866;2023-03-03T01:03:20;66.57;;;34.53;;
49193;SDS011;35029;50.804;12.866;2023-03-03T01:05:49;69.72;;;36.15;;
49193;SDS011;35029;50.804;12.866;2023-03-03T01:08:16;63.53;;;32.60;;
49193;SDS011;35029;50.804;12.866;2023-03-03T01:10:45;91.45;;;36.25;;
49193;SDS011;35029;50.804;12.866;2023-03-03T01:13:21;74.45;;;37.67;;
49193;SDS011;35029;50.804;12.866;2023-03-03T01:15:51;72.88;;;36.83;;
49193;SDS011;35029;50.804;12.866;2023-03-03T01:18:18;65.10;;;35.85;;
49193;SDS011;35029;50.804;12.866;2023-03-03T01:20:44;70.93;;;35.97;;
49193;SDS011;35029;50.804;12.866;2023-03-03T01:23:10;76.07;;;37.38;;
49193;SDS011;35029;50.804;12.866;2023-03-03T01:25:36;78.18;;;37.83;;
49193;SDS011;35029;50.804;12.866;2023-03-03T01:28:01;63.92;;;36.15;;
49193;SDS011;35029;50.804;12.866;2023-03-03T01:30:28;58.83;;;34.30;;
49193;SDS011;35029;50.804;12.866;2023-03-03T01:32:53;69.35;;;34.88;;
49193;SDS011;35029;50.804;12.866;2023-03-03T01:35:19;60.53;;;32.63;;
49193;SDS011;35029;50.804;12.866;2023-03-03T01:37:46;55.88;;;33.25;;
49193;SDS011;35029;50.804;12.866;2023-03-03T01:40:20;63.20;;;34.08;;
49193;SDS011;35029;50.804;12.866;2023-03-03T01:42:48;64.70;;;36.58;;
49193;SDS011;35029;50.804;12.866;2023-03-03T01:45:24;57.92;;;34.47;;
49193;SDS011;35029;50.804;12.866;2023-03-03T01:47:58;63.40;;;34.28;;
49193;SDS011;35029;50.804;12.866;2023-03-03T01:53:27;64.82;;;35.50;;
49193;SDS011;35029;50.804;12.866;2023-03-03T01:56:04;58.90;;;33.45;;
49193;SDS011;35029;50.804;12.866;2023-03-03T01:58:34;64.78;;;35.85;;
49193;SDS011;35029;50.804;12.866;2023-03-03T02:01:06;67.65;;;36.63;;
49193;SDS011;35029;50.804;12.866;2023-03-03T02:03:38;82.45;;;38.72;;
49193;SDS011;35029;50.804;12.866;2023-03-03T02:06:07;74.90;;;36.17;;
49193;SDS011;35029;50.804;12.866;2023-03-03T02:11:15;60.75;;;35.47;;
49193;SDS011;35029;50.804;12.866;2023-03-03T02:13:40;70.97;;;34.17;;
49193;SDS011;35029;50.804;12.866;2023-03-03T02:16:06;69.25;;;34.67;;
49193;SDS011;35029;50.804;12.866;2023-03-03T02:18:32;58.63;;;31.73;;
49193;SDS011;35029;50.804;12.866;2023-03-03T02:21:14;52.35;;;31.35;;
49193;SDS011;35029;50.804;12.866;2023-03-03T02:26:26;61.90;;;33.50;;
49193;SDS011;35029;50.804;12.866;2023-03-03T02:29:00;57.60;;;32.75;;
49193;SDS011;35029;50.804;12.866;2023-03-03T02:31:27;59.10;;;34.45;;
49193;SDS011;35029;50.804;12.866;2023-03-03T02:33:54;67.72;;;35.40;;
49193;SDS011;35029;50.804;12.866;2023-03-03T02:39:07;57.75;;;33.00;;
49193;SDS011;35029;50.804;12.866;2023-03-03T02:41:45;55.10;;;32.38;;
49193;SDS011;35029;50.804;12.866;2023-03-03T02:44:32;55.72;;;31.67;;
49193;SDS011;35029;50.804;12.866;2023-03-03T02:46:58;60.00;;;32.53;;
49193;SDS011;35029;50.804;12.866;2023-03-03T02:49:27;63.28;;;33.15;;
49193;SDS011;35029;50.804;12.866;2023-03-03T02:51:56;60.58;;;33.88;;
49193;SDS011;35029;50.804;12.866;2023-03-03T02:54:24;61.47;;;33.20;;
49193;SDS011;35029;50.804;12.866;2023-03-03T02:56:51;56.10;;;32.78;;
49193;SDS011;35029;50.804;12.866;2023-03-03T02:59:19;71.22;;;34.80;;
49193;SDS011;35029;50.804;12.866;2023-03-03T03:01:48;55.38;;;32.10;;
49193;SDS011;35029;50.804;12.866;2023-03-03T03:04:21;59.25;;;33.15;;
49193;SDS011;35029;50.804;12.866;2023-03-03T03:06:49;58.38;;;34.20;;
49193;SDS011;35029;50.804;12.866;2023-03-03T03:09:17;54.88;;;31.15;;
49193;SDS011;35029;50.804;12.866;2023-03-03T03:11:45;62.30;;;33.03;;
49193;SDS011;35029;50.804;12.866;2023-03-03T03:14:12;59.17;;;34.00;;
49193;SDS011;35029;50.804;12.866;2023-03-03T03:16:39;56.97;;;33.30;;
49193;SDS011;35029;50.804;12.866;2023-03-03T03:19:05;58.17;;;34.03;;
49193;SDS011;35029;50.804;12.866;2023-03-03T03:21:32;53.13;;;31.27;;
49193;SDS011;35029;50.804;12.866;2023-03-03T03:23:59;55.97;;;32.42;;
49193;SDS011;35029;50.804;12.866;2023-03-03T03:26:26;60.72;;;31.77;;
49193;SDS011;35029;50.804;12.866;2023-03-03T03:28:52;57.03;;;32.15;;
49193;SDS011;35029;50.804;12.866;2023-03-03T03:31:18;55.30;;;34.40;;
49193;SDS011;35029;50.804;12.866;2023-03-03T03:33:45;58.83;;;33.00;;
49193;SDS011;35029;50.804;12.866;2023-03-03T03:36:14;57.15;;;33.08;;
49193;SDS011;35029;50.804;12.866;2023-03-03T03:38:41;54.28;;;32.38;;
49193;SDS011;35029;50.804;12.866;2023-03-03T03:41:08;59.43;;;32.53;;
49193;SDS011;35029;50.804;12.866;2023-03-03T03:43:36;59.95;;;32.25;;
49193;SDS011;35029;50.804;12.866;2023-03-03T03:46:02;55.77;;;32.77;;
49193;SDS011;35029;50.804;12.866;2023-03-03T03:48:28;57.92;;;32.13;;
49193;SDS011;35029;50.804;12.866;2023-03-03T03:50:55;56.73;;;32.83;;
49193;SDS011;35029;50.804;12.866;2023-03-03T03:53:23;55.90;;;32.33;;
49193;SDS011;35029;50.804;12.866;2023-03-03T03:55:51;67.00;;;32.75;;
49193;SDS011;35029;50.804;12.866;2023-03-03T03:58:17;52.10;;;30.48;;
49193;SDS011;35029;50.804;12.866;2023-03-03T04:00:49;60.90;;;31.40;;
49193;SDS011;35029;50.804;12.866;2023-03-03T04:03:16;58.83;;;32.77;;
49193;SDS011;35029;50.804;12.866;2023-03-03T04:05:43;49.72;;;29.65;;
49193;SDS011;35029;50.804;12.866;2023-03-03T04:08:10;50.03;;;29.05;;
49193;SDS011;35029;50.804;12.866;2023-03-03T04:10:37;58.37;;;30.20;;
49193;SDS011;35029;50.804;12.866;2023-03-03T04:13:04;53.65;;;31.25;;
49193;SDS011;35029;50.804;12.866;2023-03-03T04:15:31;55.50;;;32.90;;
49193;SDS011;35029;50.804;12.866;2023-03-03T04:17:58;61.35;;;34.05;;
49193;SDS011;35029;50.804;12.866;2023-03-03T04:20:24;56.73;;;31.50;;
49193;SDS011;35029;50.804;12.866;2023-03-03T04:22:52;53.50;;;30.17;;
49193;SDS011;35029;50.804;12.866;2023-03-03T04:25:17;50.75;;;29.67;;
49193;SDS011;35029;50.804;12.866;2023-03-03T04:27:45;56.50;;;30.48;;
49193;SDS011;35029;50.804;12.866;2023-03-03T04:30:12;52.15;;;30.15;;
49193;SDS011;35029;50.804;12.866;2023-03-03T04:32:41;54.50;;;30.27;;
49193;SDS011;35029;50.804;12.866;2023-03-03T04:35:10;54.42;;;30.42;;
49193;SDS011;35029;50.804;12.866;2023-03-03T04:37:39;51.75;;;29.40;;
49193;SDS011;35029;50.804;12.866;2023-03-03T04:40:05;54.53;;;29.67;;
49193;SDS011;35029;50.804;12.866;2023-03-03T04:42:33;58.65;;;32.75;;
49193;SDS011;35029;50.804;12.866;2023-03-03T04:44:59;63.03;;;32.00;;
49193;SDS011;35029;50.804;12.866;2023-03-03T04:47:26;53.72;;;30.52;;
49193;SDS011;35029;50.804;12.866;2023-03-03T04:49:51;55.80;;;31.33;;
49193;SDS011;35029;50.804;12.866;2023-03-03T04:52:17;53.05;;;29.98;;
49193;SDS011;35029;50.804;12.866;2023-03-03T04:54:43;54.17;;;31.30;;
49193;SDS011;35029;50.804;12.866;2023-03-03T04:57:09;51.95;;;30.05;;
49193;SDS011;35029;50.804;12.866;2023-03-03T04:59:35;51.65;;;30.70;;
49193;SDS011;35029;50.804;12.866;2023-03-03T05:02:01;52.33;;;30.60;;
49193;SDS011;35029;50.804;12.866;2023-03-03T05:04:28;44.63;;;27.85;;
49193;SDS011;35029;50.804;12.866;2023-03-03T05:06:54;57.80;;;30.75;;
49193;SDS011;35029;50.804;12.866;2023-03-03T05:09:21;58.38;;;31.88;;
49193;SDS011;35029;50.804;12.866;2023-03-03T05:11:47;56.13;;;30.70;;
49193;SDS011;35029;50.804;12.866;2023-03-03T05:14:13;49.20;;;30.20;;
49193;SDS011;35029;50.804;12.866;2023-03-03T05:16:38;51.88;;;29.60;;
49193;SDS011;35029;50.804;12.866;2023-03-03T05:19:04;58.92;;;30.50;;
49193;SDS011;35029;50.804;12.866;2023-03-03T05:21:30;55.95;;;30.83;;
49193;SDS011;35029;50.804;12.866;2023-03-03T05:23:55;54.90;;;30.52;;
49193;SDS011;35029;50.804;12.866;2023-03-03T05:26:21;55.95;;;30.58;;
49193;SDS011;35029;50.804;12.866;2023-03-03T05:28:47;54.60;;;31.13;;
49193;SDS011;35029;50.804;12.866;2023-03-03T05:31:12;68.57;;;31.13;;
49193;SDS011;35029;50.804;12.866;2023-03-03T05:33:38;49.17;;;29.33;;
49193;SDS011;35029;50.804;12.866;2023-03-03T05:36:04;57.47;;;31.13;;
49193;SDS011;35029;50.804;12.866;2023-03-03T05:38:29;57.95;;;31.73;;
49193;SDS011;35029;50.804;12.866;2023-03-03T05:40:55;63.40;;;32.83;;
49193;SDS011;35029;50.804;12.866;2023-03-03T05:43:20;55.70;;;30.50;;
49193;SDS011;35029;50.804;12.866;2023-03-03T05:45:47;59.80;;;31.75;;
49193;SDS011;35029;50.804;12.866;2023-03-03T05:48:12;58.38;;;32.75;;
49193;SDS011;35029;50.804;12.866;2023-03-03T05:50:38;58.35;;;31.75;;
49193;SDS011;35029;50.804;12.866;2023-03-03T05:53:04;58.35;;;31.85;;
49193;SDS011;35029;50.804;12.866;2023-03-03T05:55:29;60.88;;;31.83;;
49193;SDS011;35029;50.804;12.866;2023-03-03T05:57:55;52.67;;;29.63;;
49193;SDS011;35029;50.804;12.866;2023-03-03T06:00:21;66.45;;;32.65;;
49193;SDS011;35029;50.804;12.866;2023-03-03T06:02:47;64.80;;;32.00;;
49193;SDS011;35029;50.804;12.866;2023-03-03T06:05:13;49.67;;;29.58;;
49193;SDS011;35029;50.804;12.866;2023-03-03T06:07:39;58.53;;;32.57;;
49193;SDS011;35029;50.804;12.866;2023-03-03T06:10:05;55.33;;;30.48;;
49193;SDS011;35029;50.804;12.866;2023-03-03T06:12:34;51.40;;;30.15;;
49193;SDS011;35029;50.804;12.866;2023-03-03T06:15:01;49.65;;;29.15;;
49193;SDS011;35029;50.804;12.866;2023-03-03T06:17:26;55.93;;;27.80;;
49193;SDS011;35029;50.804;12.866;2023-03-03T06:19:52;51.97;;;28.10;;
49193;SDS011;35029;50.804;12.866;2023-03-03T06:22:18;56.93;;;31.23;;
49193;SDS011;35029;50.804;12.866;2023-03-03T06:24:43;47.97;;;28.15;;
49193;SDS011;35029;50.804;12.866;2023-03-03T06:27:09;49.63;;;28.30;;
49193;SDS011;35029;50.804;12.866;2023-03-03T06:29:35;53.63;;;30.75;;
49193;SDS011;35029;50.804;12.866;2023-03-03T06:32:00;56.83;;;32.05;;
49193;SDS011;35029;50.804;12.866;2023-03-03T06:34:26;49.13;;;28.63;;
49193;SDS011;35029;50.804;12.866;2023-03-03T06:36:52;48.70;;;29.35;;
49193;SDS011;35029;50.804;12.866;2023-03-03T06:39:17;52.13;;;29.60;;
49193;SDS011;35029;50.804;12.866;2023-03-03T06:41:43;56.25;;;31.60;;
49193;SDS011;35029;50.804;12.866;2023-03-03T06:44:08;53.95;;;30.77;;
49193;SDS011;35029;50.804;12.866;2023-03-03T06:46:35;52.47;;;31.23;;
49193;SDS011;35029;50.804;12.866;2023-03-03T06:49:02;59.03;;;30.08;;
49193;SDS011;35029;50.804;12.866;2023-03-03T06:51:38;51.93;;;29.57;;
49193;SDS011;35029;50.804;12.866;2023-03-03T06:54:11;61.20;;;32.85;;
49193;SDS011;35029;50.804;12.866;2023-03-03T06:56:41;54.13;;;30.48;;
49193;SDS011;35029;50.804;12.866;2023-03-03T06:59:12;58.33;;;32.08;;
49193;SDS011;35029;50.804;12.866;2023-03-03T07:01:40;55.67;;;30.65;;
49193;SDS011;35029;50.804;12.866;2023-03-03T07:04:51;51.80;;;29.87;;
49193;SDS011;35029;50.804;12.866;2023-03-03T07:06:59;50.28;;;29.50;;
49193;SDS011;35029;50.804;12.866;2023-03-03T07:09:45;49.55;;;27.98;;
49193;SDS011;35029;50.804;12.866;2023-03-03T07:12:14;53.30;;;28.95;;
49193;SDS011;35029;50.804;12.866;2023-03-03T07:14:43;45.33;;;27.92;;
49193;SDS011;35029;50.804;12.866;2023-03-03T07:17:16;51.95;;;29.63;;
49193;SDS011;35029;50.804;12.866;2023-03-03T07:19:44;54.25;;;31.00;;
49193;SDS011;35029;50.804;12.866;2023-03-03T07:24:36;54.65;;;30.85;;
49193;SDS011;35029;50.804;12.866;2023-03-03T07:29:30;54.47;;;29.05;;
49193;SDS011;35029;50.804;12.866;2023-03-03T07:31:58;53.90;;;30.83;;
49193;SDS011;35029;50.804;12.866;2023-03-03T07:34:29;53.30;;;30.25;;
49193;SDS011;35029;50.804;12.866;2023-03-03T07:37:03;61.53;;;33.33;;
49193;SDS011;35029;50.804;12.866;2023-03-03T07:39:37;52.15;;;30.45;;
49193;SDS011;35029;50.804;12.866;2023-03-03T07:44:48;47.15;;;29.02;;
49193;SDS011;35029;50.804;12.866;2023-03-03T07:49:53;51.22;;;30.05;;
49193;SDS011;35029;50.804;12.866;2023-03-03T07:52:30;57.05;;;31.92;;
49193;SDS011;35029;50.804;12.866;2023-03-03T07:55:40;61.05;;;32.92;;
49193;SDS011;35029;50.804;12.866;2023-03-03T08:03:56;57.72;;;30.85;;
49193;SDS011;35029;50.804;12.866;2023-03-03T08:14:28;53.33;;;29.38;;
49193;SDS011;35029;50.804;12.866;2023-03-03T08:16:56;52.40;;;28.30;;
49193;SDS011;35029;50.804;12.866;2023-03-03T08:19:22;45.35;;;26.08;;
49193;SDS011;35029;50.804;12.866;2023-03-03T08:21:48;48.08;;;27.40;;
49193;SDS011;35029;50.804;12.866;2023-03-03T08:24:13;48.83;;;27.38;;
49193;SDS011;35029;50.804;12.866;2023-03-03T08:26:41;49.72;;;27.92;;
49193;SDS011;35029;50.804;12.866;2023-03-03T08:29:14;45.80;;;26.97;;
49193;SDS011;35029;50.804;12.866;2023-03-03T08:31:39;50.20;;;27.23;;
49193;SDS011;35029;50.804;12.866;2023-03-03T08:34:05;51.85;;;28.30;;
49193;SDS011;35029;50.804;12.866;2023-03-03T08:36:30;56.25;;;28.98;;
49193;SDS011;35029;50.804;12.866;2023-03-03T08:38:56;51.25;;;28.98;;
49193;SDS011;35029;50.804;12.866;2023-03-03T08:41:21;43.20;;;25.75;;
49193;SDS011;35029;50.804;12.866;2023-03-03T08:43:47;41.15;;;25.33;;
49193;SDS011;35029;50.804;12.866;2023-03-03T08:46:14;50.63;;;28.02;;
49193;SDS011;35029;50.804;12.866;2023-03-03T08:48:40;47.20;;;26.70;;
49193;SDS011;35029;50.804;12.866;2023-03-03T08:51:05;55.63;;;26.90;;
49193;SDS011;35029;50.804;12.866;2023-03-03T08:53:31;51.45;;;26.70;;
49193;SDS011;35029;50.804;12.866;2023-03-03T08:56:00;60.28;;;27.52;;
49193;SDS011;35029;50.804;12.866;2023-03-03T08:58:26;51.42;;;27.70;;
49193;SDS011;35029;50.804;12.866;2023-03-03T09:00:52;46.83;;;28.05;;
49193;SDS011;35029;50.804;12.866;2023-03-03T09:03:18;50.65;;;28.77;;
49193;SDS011;35029;50.804;12.866;2023-03-03T09:05:43;47.33;;;26.42;;
49193;SDS011;35029;50.804;12.866;2023-03-03T09:08:09;52.80;;;27.80;;
49193;SDS011;35029;50.804;12.866;2023-03-03T09:10:35;55.63;;;28.65;;
49193;SDS011;35029;50.804;12.866;2023-03-03T09:13:11;57.17;;;28.75;;
49193;SDS011;35029;50.804;12.866;2023-03-03T09:15:39;53.83;;;28.10;;
49193;SDS011;35029;50.804;12.866;2023-03-03T09:18:09;57.20;;;29.02;;
49193;SDS011;35029;50.804;12.866;2023-03-03T09:20:49;50.17;;;27.48;;
49193;SDS011;35029;50.804;12.866;2023-03-03T09:25:49;61.47;;;30.27;;
49193;SDS011;35029;50.804;12.866;2023-03-03T09:28:25;57.88;;;29.70;;
49193;SDS011;35029;50.804;12.866;2023-03-03T09:30:56;50.45;;;27.52;;
49193;SDS011;35029;50.804;12.866;2023-03-03T09:33:41;55.67;;;29.38;;
49193;SDS011;35029;50.804;12.866;2023-03-03T09:39:03;51.97;;;27.77;;
49193;SDS011;35029;50.804;12.866;2023-03-03T09:44:33;56.10;;;26.73;;
49193;SDS011;35029;50.804;12.866;2023-03-03T09:55:29;47.35;;;23.02;;
49193;SDS011;35029;50.804;12.866;2023-03-03T10:04:23;43.78;;;21.45;;
49193;SDS011;35029;50.804;12.866;2023-03-03T10:12:26;44.67;;;21.90;;
49193;SDS011;35029;50.804;12.866;2023-03-03T10:17:33;36.90;;;20.38;;
49193;SDS011;35029;50.804;12.866;2023-03-03T10:57:33;30.05;;;16.00;;
49193;SDS011;35029;50.804;12.866;2023-03-03T11:00:26;31.70;;;16.92;;
49193;SDS011;35029;50.804;12.866;2023-03-03T11:05:57;26.23;;;14.05;;
49193;SDS011;35029;50.804;12.866;2023-03-03T11:08:48;27.77;;;14.80;;
49193;SDS011;35029;50.804;12.866;2023-03-03T11:13:55;22.00;;;12.38;;
49193;SDS011;35029;50.804;12.866;2023-03-03T11:16:44;25.80;;;14.35;;
49193;SDS011;35029;50.804;12.866;2023-03-03T11:22:26;24.60;;;13.05;;
49193;SDS011;35029;50.804;12.866;2023-03-03T11:30:57;22.83;;;12.38;;
49193;SDS011;35029;50.804;12.866;2023-03-03T11:33:37;21.17;;;12.38;;
49193;SDS011;35029;50.804;12.866;2023-03-03T11:38:56;21.30;;;11.70;;
49193;SDS011;35029;50.804;12.866;2023-03-03T11:44:01;17.30;;;10.52;;
49193;SDS011;35029;50.804;12.866;2023-03-03T11:46:51;15.90;;;9.65;;
49193;SDS011;35029;50.804;12.866;2023-03-03T11:49:27;19.13;;;10.75;;
49193;SDS011;35029;50.804;12.866;2023-03-03T11:53:06;17.90;;;10.55;;
49193;SDS011;35029;50.804;12.866;2023-03-03T12:06:26;17.80;;;10.57;;
49193;SDS011;35029;50.804;12.866;2023-03-03T12:11:47;20.38;;;10.25;;
49193;SDS011;35029;50.804;12.866;2023-03-03T12:19:31;18.02;;;11.27;;
49193;SDS011;35029;50.804;12.866;2023-03-03T12:28:04;14.93;;;9.07;;
49193;SDS011;35029;50.804;12.866;2023-03-03T12:33:49;19.48;;;10.02;;
49193;SDS011;35029;50.804;12.866;2023-03-03T12:39:01;21.20;;;10.93;;
49193;SDS011;35029;50.804;12.866;2023-03-03T13:08:50;17.27;;;9.98;;
49193;SDS011;35029;50.804;12.866;2023-03-03T13:11:41;19.58;;;11.23;;
49193;SDS011;35029;50.804;12.866;2023-03-03T13:14:19;25.92;;;12.50;;
49193;SDS011;35029;50.804;12.866;2023-03-03T13:19:45;27.40;;;14.20;;
49193;SDS011;35029;50.804;12.866;2023-03-03T13:25:08;24.08;;;13.52;;
49193;SDS011;35029;50.804;12.866;2023-03-03T13:27:41;31.80;;;15.23;;
49193;SDS011;35029;50.804;12.866;2023-03-03T13:35:20;33.17;;;18.02;;
49193;SDS011;35029;50.804;12.866;2023-03-03T13:38:02;34.92;;;17.83;;
49193;SDS011;35029;50.804;12.866;2023-03-03T13:42:59;36.65;;;18.90;;
49193;SDS011;35029;50.804;12.866;2023-03-03T13:45:53;33.25;;;18.33;;
49193;SDS011;35029;50.804;12.866;2023-03-03T14:02:48;37.42;;;16.65;;
49193;SDS011;35029;50.804;12.866;2023-03-03T14:16:20;48.20;;;22.08;;
49193;SDS011;35029;50.804;12.866;2023-03-03T14:18:59;51.22;;;21.88;;
49193;SDS011;35029;50.804;12.866;2023-03-03T14:21:52;48.08;;;22.70;;
49193;SDS011;35029;50.804;12.866;2023-03-03T14:24:27;45.75;;;22.50;;
49193;SDS011;35029;50.804;12.866;2023-03-03T14:26:54;47.33;;;23.65;;
49193;SDS011;35029;50.804;12.866;2023-03-03T14:31:47;54.78;;;24.52;;
49193;SDS011;35029;50.804;12.866;2023-03-03T14:34:23;52.15;;;23.73;;
49193;SDS011;35029;50.804;12.866;2023-03-03T14:36:58;49.78;;;21.88;;
49193;SDS011;35029;50.804;12.866;2023-03-03T14:39:44;51.85;;;24.83;;
49193;SDS011;35029;50.804;12.866;2023-03-03T14:45:28;54.67;;;24.85;;
49193;SDS011;35029;50.804;12.866;2023-03-03T14:50:36;64.32;;;27.45;;
49193;SDS011;35029;50.804;12.866;2023-03-03T14:53:11;58.00;;;27.15;;
49193;SDS011;35029;50.804;12.866;2023-03-03T14:55:40;55.58;;;24.48;;
49193;SDS011;35029;50.804;12.866;2023-03-03T14:58:29;58.87;;;26.40;;
49193;SDS011;35029;50.804;12.866;2023-03-03T15:03:33;49.72;;;24.25;;
49193;SDS011;35029;50.804;12.866;2023-03-03T15:06:07;54.38;;;25.77;;
49193;SDS011;35029;50.804;12.866;2023-03-03T15:08:38;53.33;;;24.55;;
49193;SDS011;35029;50.804;12.866;2023-03-03T15:11:38;48.42;;;22.75;;
49193;SDS011;35029;50.804;12.866;2023-03-03T15:14:11;49.45;;;23.60;;
49193;SDS011;35029;50.804;12.866;2023-03-03T15:16:40;51.60;;;25.65;;
49193;SDS011;35029;50.804;12.866;2023-03-03T15:21:49;48.13;;;25.52;;
49193;SDS011;35029;50.804;12.866;2023-03-03T15:24:30;53.17;;;26.02;;
49193;SDS011;35029;50.804;12.866;2023-03-03T15:27:07;49.28;;;24.77;;
49193;SDS011;35029;50.804;12.866;2023-03-03T15:35:20;45.20;;;23.67;;
49193;SDS011;35029;50.804;12.866;2023-03-03T15:37:58;47.75;;;24.33;;
49193;SDS011;35029;50.804;12.866;2023-03-03T15:40:48;46.78;;;22.85;;
49193;SDS011;35029;50.804;12.866;2023-03-03T15:43:33;47.73;;;23.07;;
49193;SDS011;35029;50.804;12.866;2023-03-03T15:56:49;46.55;;;25.50;;
49193;SDS011;35029;50.804;12.866;2023-03-03T16:02:09;50.70;;;24.95;;
49193;SDS011;35029;50.804;12.866;2023-03-03T16:04:40;50.03;;;25.43;;
49193;SDS011;35029;50.804;12.866;2023-03-03T16:15:41;50.85;;;27.25;;
49193;SDS011;35029;50.804;12.866;2023-03-03T16:21:13;53.80;;;28.10;;
49193;SDS011;35029;50.804;12.866;2023-03-03T16:23:47;55.07;;;28.30;;
49193;SDS011;35029;50.804;12.866;2023-03-03T16:26:30;51.88;;;29.08;;
49193;SDS011;35029;50.804;12.866;2023-03-03T16:29:15;56.05;;;30.95;;
49193;SDS011;35029;50.804;12.866;2023-03-03T16:31:55;58.70;;;30.38;;
49193;SDS011;35029;50.804;12.866;2023-03-03T16:37:13;62.88;;;32.53;;
49193;SDS011;35029;50.804;12.866;2023-03-03T16:39:53;56.42;;;30.45;;
49193;SDS011;35029;50.804;12.866;2023-03-03T16:42:26;55.45;;;29.00;;
49193;SDS011;35029;50.804;12.866;2023-03-03T16:52:47;44.15;;;24.38;;
49193;SDS011;35029;50.804;12.866;2023-03-03T16:55:19;46.20;;;24.45;;
49193;SDS011;35029;50.804;12.866;2023-03-03T17:00:40;44.60;;;24.77;;
49193;SDS011;35029;50.804;12.866;2023-03-03T17:05:53;46.33;;;26.10;;
49193;SDS011;35029;50.804;12.866;2023-03-03T17:24:52;53.17;;;28.25;;
49193;SDS011;35029;50.804;12.866;2023-03-03T17:27:31;55.53;;;29.15;;
49193;SDS011;35029;50.804;12.866;2023-03-03T17:37:56;57.00;;;30.30;;
49193;SDS011;35029;50.804;12.866;2023-03-03T17:45:46;52.75;;;27.10;;
49193;SDS011;35029;50.804;12.866;2023-03-03T17:48:30;54.07;;;28.63;;
49193;SDS011;35029;50.804;12.866;2023-03-03T17:54:13;49.50;;;25.52;;
49193;SDS011;35029;50.804;12.866;2023-03-03T17:59:32;58.90;;;30.15;;
49193;SDS011;35029;50.804;12.866;2023-03-03T18:02:11;58.42;;;29.92;;
49193;SDS011;35029;50.804;12.866;2023-03-03T18:07:44;59.75;;;29.08;;
49193;SDS011;35029;50.804;12.866;2023-03-03T18:10:23;55.33;;;29.27;;
49193;SDS011;35029;50.804;12.866;2023-03-03T18:15:56;58.90;;;28.98;;
49193;SDS011;35029;50.804;12.866;2023-03-03T18:41:03;55.83;;;27.60;;
49193;SDS011;35029;50.804;12.866;2023-03-03T18:48:52;62.22;;;29.73;;
49193;SDS011;35029;50.804;12.866;2023-03-03T18:54:03;59.40;;;29.67;;
49193;SDS011;35029;50.804;12.866;2023-03-03T18:59:37;58.40;;;28.83;;
49193;SDS011;35029;50.804;12.866;2023-03-03T19:05:05;60.75;;;29.65;;
49193;SDS011;35029;50.804;12.866;2023-03-03T19:16:02;59.10;;;29.13;;
49193;SDS011;35029;50.804;12.866;2023-03-03T19:18:35;60.97;;;30.10;;
49193;SDS011;35029;50.804;12.866;2023-03-03T19:21:21;61.05;;;29.73;;
49193;SDS011;35029;50.804;12.866;2023-03-03T19:31:40;65.80;;;32.63;;
49193;SDS011;35029;50.804;12.866;2023-03-03T19:34:29;63.83;;;31.50;;
49193;SDS011;35029;50.804;12.866;2023-03-03T19:42:52;69.55;;;33.78;;
49193;SDS011;35029;50.804;12.866;2023-03-03T19:56:54;68.10;;;32.28;;
49193;SDS011;35029;50.804;12.866;2023-03-03T20:13:02;72.75;;;33.65;;
49193;SDS011;35029;50.804;12.866;2023-03-03T20:15:57;69.35;;;33.30;;
49193;SDS011;35029;50.804;12.866;2023-03-03T20:23:50;71.05;;;32.75;;
49193;SDS011;35029;50.804;12.866;2023-03-03T20:26:30;73.07;;;32.30;;
49193;SDS011;35029;50.804;12.866;2023-03-03T20:29:08;75.03;;;35.92;;
49193;SDS011;35029;50.804;12.866;2023-03-03T20:34:54;72.38;;;33.60;;
49193;SDS011;35029;50.804;12.866;2023-03-03T20:37:24;78.97;;;36.50;;
49193;SDS011;35029;50.804;12.866;2023-03-03T20:46:04;72.68;;;33.30;;
49193;SDS011;35029;50.804;12.866;2023-03-03T21:02:18;70.60;;;34.30;;
49193;SDS011;35029;50.804;12.866;2023-03-03T21:07:56;69.07;;;32.97;;
49193;SDS011;35029;50.804;12.866;2023-03-03T21:10:29;72.97;;;33.35;;
49193;SDS011;35029;50.804;12.866;2023-03-03T21:13:18;71.43;;;32.97;;
49193;SDS011;35029;50.804;12.866;2023-03-03T21:15:54;71.28;;;33.83;;
49193;SDS011;35029;50.804;12.866;2023-03-03T21:18:23;68.70;;;32.90;;
49193;SDS011;35029;50.804;12.866;2023-03-03T21:20:50;67.18;;;33.10;;
49193;SDS011;35029;50.804;12.866;2023-03-03T21:23:16;72.57;;;34.33;;
49193;SDS011;35029;50.804;12.866;2023-03-03T21:28:24;74.78;;;33.17;;
49193;SDS011;35029;50.804;12.866;2023-03-03T21:33:39;69.20;;;32.90;;
49193;SDS011;35029;50.804;12.866;2023-03-03T21:36:07;70.10;;;32.75;;
49193;SDS011;35029;50.804;12.866;2023-03-03T21:38:34;67.87;;;32.40;;
49193;SDS011;35029;50.804;12.866;2023-03-03T21:41:02;72.90;;;33.67;;
49193;SDS011;35029;50.804;12.866;2023-03-03T21:43:35;72.90;;;33.08;;
49193;SDS011;35029;50.804;12.866;2023-03-03T21:46:11;62.50;;;30.35;;
49193;SDS011;35029;50.804;12.866;2023-03-03T21:48:40;59.45;;;28.92;;
49193;SDS011;35029;50.804;12.866;2023-03-03T21:51:07;61.92;;;30.30;;
49193;SDS011;35029;50.804;12.866;2023-03-03T21:53:34;65.22;;;30.73;;
49193;SDS011;35029;50.804;12.866;2023-03-03T21:55:59;54.10;;;28.83;;
49193;SDS011;35029;50.804;12.866;2023-03-03T21:58:25;64.45;;;32.45;;
49193;SDS011;35029;50.804;12.866;2023-03-03T22:00:50;70.32;;;33.95;;